sensor_id;sensor_type;location;lat;lon;timestamp;P1;durP1;ratioP1;P2;durP2;ratioP2
65206;SDS011;58477;48.072;11.970;2023-02-27T00:01:01;3.17;;;2.75;;
65206;SDS011;58477;48.072;11.970;2023-02-27T00:03:27;2.00;;;1.80;;
65206;SDS011;58477;48.072;11.970;2023-02-27T00:05:52;3.80;;;3.40;;
65206;SDS011;58477;48.072;11.970;2023-02-27T00:11:23;4.18;;;2.92;;
65206;SDS011;58477;48.072;11.970;2023-02-27T00:13:48;3.88;;;3.05;;
65206;SDS011;58477;48.072;11.970;2023-02-27T00:19:21;4.75;;;2.58;;
65206;SDS011;58477;48.072;11.970;2023-02-27T00:21:47;2.63;;;2.30;;
65206;SDS011;58477;48.072;11.970;2023-02-27T00:24:13;3.35;;;2.90;;
65206;SDS011;58477;48.072;11.970;2023-02-27T00:26:38;3.42;;;3.10;;
65206;SDS011;58477;48.072;11.970;2023-02-27T00:29:04;2.95;;;2.55;;
65206;SDS011;58477;48.072;11.970;2023-02-27T00:31:30;4.90;;;2.85;;
65206;SDS011;58477;48.072;11.970;2023-02-27T00:33:57;5.38;;;2.80;;
65206;SDS011;58477;48.072;11.970;2023-02-27T00:36:23;3.13;;;2.83;;
65206;SDS011;58477;48.072;11.970;2023-02-27T00:38:48;6.00;;;3.08;;
65206;SDS011;58477;48.072;11.970;2023-02-27T00:41:14;3.10;;;2.80;;
65206;SDS011;58477;48.072;11.970;2023-02-27T00:43:39;3.47;;;3.08;;
65206;SDS011;58477;48.072;11.970;2023-02-27T00:46:05;3.75;;;3.00;;
65206;SDS011;58477;48.072;11.970;2023-02-27T00:48:30;2.15;;;1.52;;
65206;SDS011;58477;48.072;11.970;2023-02-27T00:50:56;3.47;;;2.50;;
65206;SDS011;58477;48.072;11.970;2023-02-27T00:53:21;3.22;;;2.92;;
65206;SDS011;58477;48.072;11.970;2023-02-27T00:55:47;2.88;;;2.58;;
65206;SDS011;58477;48.072;11.970;2023-02-27T00:58:13;3.08;;;2.28;;
65206;SDS011;58477;48.072;11.970;2023-02-27T01:00:38;5.07;;;3.20;;
65206;SDS011;58477;48.072;11.970;2023-02-27T01:03:03;4.57;;;2.88;;
65206;SDS011;58477;48.072;11.970;2023-02-27T01:05:29;3.60;;;3.05;;
65206;SDS011;58477;48.072;11.970;2023-02-27T01:07:57;3.58;;;2.30;;
65206;SDS011;58477;48.072;11.970;2023-02-27T01:10:23;4.10;;;2.67;;
65206;SDS011;58477;48.072;11.970;2023-02-27T01:12:48;3.85;;;3.25;;
65206;SDS011;58477;48.072;11.970;2023-02-27T01:15:14;3.33;;;2.60;;
65206;SDS011;58477;48.072;11.970;2023-02-27T01:17:40;6.70;;;3.05;;
65206;SDS011;58477;48.072;11.970;2023-02-27T01:20:06;2.75;;;2.10;;
65206;SDS011;58477;48.072;11.970;2023-02-27T01:22:32;2.92;;;2.70;;
65206;SDS011;58477;48.072;11.970;2023-02-27T01:24:58;3.33;;;3.03;;
65206;SDS011;58477;48.072;11.970;2023-02-27T01:27:24;2.40;;;2.20;;
65206;SDS011;58477;48.072;11.970;2023-02-27T01:29:49;4.30;;;2.65;;
65206;SDS011;58477;48.072;11.970;2023-02-27T01:32:15;4.50;;;3.28;;
65206;SDS011;58477;48.072;11.970;2023-02-27T01:34:42;2.50;;;2.00;;
65206;SDS011;58477;48.072;11.970;2023-02-27T01:37:07;2.20;;;2.00;;
65206;SDS011;58477;48.072;11.970;2023-02-27T01:39:32;2.97;;;2.42;;
65206;SDS011;58477;48.072;11.970;2023-02-27T01:41:58;3.08;;;2.78;;
65206;SDS011;58477;48.072;11.970;2023-02-27T01:44:27;3.20;;;2.88;;
65206;SDS011;58477;48.072;11.970;2023-02-27T01:46:54;5.35;;;3.53;;
65206;SDS011;58477;48.072;11.970;2023-02-27T01:49:20;5.13;;;3.30;;
65206;SDS011;58477;48.072;11.970;2023-02-27T01:51:59;2.90;;;2.65;;
65206;SDS011;58477;48.072;11.970;2023-02-27T01:54:31;4.65;;;3.38;;
65206;SDS011;58477;48.072;11.970;2023-02-27T01:57:02;3.17;;;2.65;;
65206;SDS011;58477;48.072;11.970;2023-02-27T01:59:31;5.13;;;2.70;;
65206;SDS011;58477;48.072;11.970;2023-02-27T02:01:59;2.08;;;1.75;;
65206;SDS011;58477;48.072;11.970;2023-02-27T02:04:31;2.78;;;2.15;;
65206;SDS011;58477;48.072;11.970;2023-02-27T02:07:01;2.33;;;2.13;;
65206;SDS011;58477;48.072;11.970;2023-02-27T02:09:28;4.65;;;3.13;;
65206;SDS011;58477;48.072;11.970;2023-02-27T02:11:55;4.25;;;3.05;;
65206;SDS011;58477;48.072;11.970;2023-02-27T02:14:22;2.75;;;2.40;;
65206;SDS011;58477;48.072;11.970;2023-02-27T02:28:56;4.72;;;3.03;;
65206;SDS011;58477;48.072;11.970;2023-02-27T02:43:09;4.82;;;2.83;;
65206;SDS011;58477;48.072;11.970;2023-02-27T02:48:29;6.75;;;2.92;;
65206;SDS011;58477;48.072;11.970;2023-02-27T02:51:04;2.75;;;2.47;;
65206;SDS011;58477;48.072;11.970;2023-02-27T02:56:34;3.92;;;2.85;;
65206;SDS011;58477;48.072;11.970;2023-02-27T03:02:00;3.97;;;2.53;;
65206;SDS011;58477;48.072;11.970;2023-02-27T03:04:37;3.88;;;2.75;;
65206;SDS011;58477;48.072;11.970;2023-02-27T03:07:09;5.65;;;2.70;;
65206;SDS011;58477;48.072;11.970;2023-02-27T03:09:41;4.45;;;3.17;;
65206;SDS011;58477;48.072;11.970;2023-02-27T03:12:11;3.90;;;2.80;;
65206;SDS011;58477;48.072;11.970;2023-02-27T03:14:42;5.05;;;2.70;;
65206;SDS011;58477;48.072;11.970;2023-02-27T03:17:16;3.38;;;2.67;;
65206;SDS011;58477;48.072;11.970;2023-02-27T03:20:04;4.15;;;3.00;;
65206;SDS011;58477;48.072;11.970;2023-02-27T03:22:39;3.92;;;2.97;;
65206;SDS011;58477;48.072;11.970;2023-02-27T03:25:09;9.50;;;3.55;;
65206;SDS011;58477;48.072;11.970;2023-02-27T03:27:45;4.97;;;3.50;;
65206;SDS011;58477;48.072;11.970;2023-02-27T03:30:31;1.73;;;1.63;;
65206;SDS011;58477;48.072;11.970;2023-02-27T03:33:07;3.67;;;3.03;;
65206;SDS011;58477;48.072;11.970;2023-02-27T03:38:37;3.67;;;2.50;;
65206;SDS011;58477;48.072;11.970;2023-02-27T03:46:28;5.50;;;2.70;;
65206;SDS011;58477;48.072;11.970;2023-02-27T03:48:54;3.17;;;2.78;;
65206;SDS011;58477;48.072;11.970;2023-02-27T03:51:20;4.75;;;2.83;;
65206;SDS011;58477;48.072;11.970;2023-02-27T03:53:54;4.60;;;3.67;;
65206;SDS011;58477;48.072;11.970;2023-02-27T03:56:30;3.08;;;2.42;;
65206;SDS011;58477;48.072;11.970;2023-02-27T03:59:02;5.38;;;2.85;;
65206;SDS011;58477;48.072;11.970;2023-02-27T04:01:29;5.10;;;3.60;;
65206;SDS011;58477;48.072;11.970;2023-02-27T04:04:00;3.45;;;3.15;;
65206;SDS011;58477;48.072;11.970;2023-02-27T04:07:00;7.45;;;3.78;;
65206;SDS011;58477;48.072;11.970;2023-02-27T04:20:42;12.20;;;3.63;;
65206;SDS011;58477;48.072;11.970;2023-02-27T04:23:15;4.13;;;2.88;;
65206;SDS011;58477;48.072;11.970;2023-02-27T04:25:52;4.38;;;3.30;;
65206;SDS011;58477;48.072;11.970;2023-02-27T04:28:42;8.63;;;4.28;;
65206;SDS011;58477;48.072;11.970;2023-02-27T04:31:16;3.95;;;3.28;;
65206;SDS011;58477;48.072;11.970;2023-02-27T04:34:00;4.60;;;3.75;;
65206;SDS011;58477;48.072;11.970;2023-02-27T04:36:41;4.45;;;3.10;;
65206;SDS011;58477;48.072;11.970;2023-02-27T04:41:58;7.07;;;3.95;;
65206;SDS011;58477;48.072;11.970;2023-02-27T04:44:27;3.15;;;2.63;;
65206;SDS011;58477;48.072;11.970;2023-02-27T04:46:55;6.68;;;4.40;;
65206;SDS011;58477;48.072;11.970;2023-02-27T04:57:45;5.90;;;4.43;;
65206;SDS011;58477;48.072;11.970;2023-02-27T05:00:15;4.93;;;3.92;;
65206;SDS011;58477;48.072;11.970;2023-02-27T05:02:46;4.68;;;4.25;;
65206;SDS011;58477;48.072;11.970;2023-02-27T05:05:18;7.45;;;5.70;;
65206;SDS011;58477;48.072;11.970;2023-02-27T05:07:49;4.28;;;3.75;;
65206;SDS011;58477;48.072;11.970;2023-02-27T05:10:25;15.13;;;4.60;;
65206;SDS011;58477;48.072;11.970;2023-02-27T05:13:14;4.70;;;3.25;;
65206;SDS011;58477;48.072;11.970;2023-02-27T05:15:44;2.53;;;2.33;;
65206;SDS011;58477;48.072;11.970;2023-02-27T05:18:15;4.97;;;3.30;;
65206;SDS011;58477;48.072;11.970;2023-02-27T05:26:15;6.25;;;4.22;;
65206;SDS011;58477;48.072;11.970;2023-02-27T05:28:53;5.18;;;3.40;;
65206;SDS011;58477;48.072;11.970;2023-02-27T05:31:25;5.10;;;3.92;;
65206;SDS011;58477;48.072;11.970;2023-02-27T05:36:23;4.85;;;3.50;;
65206;SDS011;58477;48.072;11.970;2023-02-27T05:39:02;6.47;;;4.10;;
65206;SDS011;58477;48.072;11.970;2023-02-27T05:42:16;7.05;;;4.00;;
65206;SDS011;58477;48.072;11.970;2023-02-27T05:44:23;4.28;;;3.75;;
65206;SDS011;58477;48.072;11.970;2023-02-27T05:46:57;3.20;;;2.90;;
65206;SDS011;58477;48.072;11.970;2023-02-27T05:52:14;6.25;;;4.13;;
65206;SDS011;58477;48.072;11.970;2023-02-27T05:57:28;4.93;;;3.17;;
65206;SDS011;58477;48.072;11.970;2023-02-27T06:06:04;4.35;;;3.40;;
65206;SDS011;58477;48.072;11.970;2023-02-27T06:08:32;3.50;;;2.85;;
65206;SDS011;58477;48.072;11.970;2023-02-27T06:10:58;5.85;;;3.58;;
65206;SDS011;58477;48.072;11.970;2023-02-27T06:13:23;3.45;;;2.92;;
65206;SDS011;58477;48.072;11.970;2023-02-27T06:15:50;8.82;;;3.78;;
65206;SDS011;58477;48.072;11.970;2023-02-27T06:18:16;4.07;;;3.65;;
65206;SDS011;58477;48.072;11.970;2023-02-27T06:20:42;7.80;;;3.85;;
65206;SDS011;58477;48.072;11.970;2023-02-27T06:23:09;6.50;;;3.75;;
65206;SDS011;58477;48.072;11.970;2023-02-27T06:25:35;3.10;;;2.80;;
65206;SDS011;58477;48.072;11.970;2023-02-27T06:28:00;5.93;;;3.92;;
65206;SDS011;58477;48.072;11.970;2023-02-27T06:30:26;5.30;;;3.13;;
65206;SDS011;58477;48.072;11.970;2023-02-27T06:32:52;4.40;;;3.70;;
65206;SDS011;58477;48.072;11.970;2023-02-27T06:35:18;2.65;;;2.33;;
65206;SDS011;58477;48.072;11.970;2023-02-27T06:37:43;11.40;;;4.10;;
65206;SDS011;58477;48.072;11.970;2023-02-27T06:40:09;8.35;;;3.05;;
65206;SDS011;58477;48.072;11.970;2023-02-27T06:42:36;5.25;;;3.53;;
65206;SDS011;58477;48.072;11.970;2023-02-27T06:45:02;4.97;;;3.42;;
65206;SDS011;58477;48.072;11.970;2023-02-27T06:47:28;6.35;;;4.20;;
65206;SDS011;58477;48.072;11.970;2023-02-27T06:49:53;4.45;;;2.28;;
65206;SDS011;58477;48.072;11.970;2023-02-27T06:52:19;5.72;;;3.70;;
65206;SDS011;58477;48.072;11.970;2023-02-27T06:54:44;6.93;;;4.38;;
65206;SDS011;58477;48.072;11.970;2023-02-27T06:57:09;7.22;;;4.30;;
65206;SDS011;58477;48.072;11.970;2023-02-27T06:59:35;7.38;;;3.58;;
65206;SDS011;58477;48.072;11.970;2023-02-27T07:02:00;7.30;;;3.33;;
65206;SDS011;58477;48.072;11.970;2023-02-27T07:04:26;5.07;;;2.83;;
65206;SDS011;58477;48.072;11.970;2023-02-27T07:06:51;5.30;;;3.05;;
65206;SDS011;58477;48.072;11.970;2023-02-27T07:09:17;2.95;;;2.58;;
65206;SDS011;58477;48.072;11.970;2023-02-27T07:11:42;5.70;;;2.55;;
65206;SDS011;58477;48.072;11.970;2023-02-27T07:14:08;4.40;;;2.60;;
65206;SDS011;58477;48.072;11.970;2023-02-27T07:16:33;3.50;;;3.13;;
65206;SDS011;58477;48.072;11.970;2023-02-27T07:18:59;2.97;;;2.60;;
65206;SDS011;58477;48.072;11.970;2023-02-27T07:21:24;3.67;;;2.67;;
65206;SDS011;58477;48.072;11.970;2023-02-27T07:23:49;6.38;;;2.95;;
65206;SDS011;58477;48.072;11.970;2023-02-27T07:26:15;4.22;;;3.22;;
65206;SDS011;58477;48.072;11.970;2023-02-27T07:28:40;6.78;;;3.10;;
65206;SDS011;58477;48.072;11.970;2023-02-27T07:31:06;3.33;;;2.55;;
65206;SDS011;58477;48.072;11.970;2023-02-27T07:33:31;3.30;;;2.40;;
65206;SDS011;58477;48.072;11.970;2023-02-27T07:35:58;3.50;;;2.92;;
65206;SDS011;58477;48.072;11.970;2023-02-27T07:38:23;4.05;;;2.30;;
65206;SDS011;58477;48.072;11.970;2023-02-27T07:40:49;3.78;;;3.22;;
65206;SDS011;58477;48.072;11.970;2023-02-27T07:43:14;4.00;;;2.80;;
65206;SDS011;58477;48.072;11.970;2023-02-27T07:45:40;3.25;;;2.72;;
65206;SDS011;58477;48.072;11.970;2023-02-27T07:48:06;8.77;;;4.05;;
65206;SDS011;58477;48.072;11.970;2023-02-27T07:50:32;11.50;;;3.25;;
65206;SDS011;58477;48.072;11.970;2023-02-27T07:52:57;4.95;;;3.58;;
65206;SDS011;58477;48.072;11.970;2023-02-27T07:55:22;7.35;;;3.53;;
65206;SDS011;58477;48.072;11.970;2023-02-27T07:57:48;6.43;;;3.70;;
65206;SDS011;58477;48.072;11.970;2023-02-27T08:00:13;5.05;;;3.92;;
65206;SDS011;58477;48.072;11.970;2023-02-27T08:02:39;7.68;;;3.70;;
65206;SDS011;58477;48.072;11.970;2023-02-27T08:05:05;4.30;;;3.75;;
65206;SDS011;58477;48.072;11.970;2023-02-27T08:07:31;8.60;;;4.05;;
65206;SDS011;58477;48.072;11.970;2023-02-27T08:09:56;5.22;;;3.50;;
65206;SDS011;58477;48.072;11.970;2023-02-27T08:12:21;5.03;;;3.55;;
65206;SDS011;58477;48.072;11.970;2023-02-27T08:14:47;6.88;;;3.42;;
65206;SDS011;58477;48.072;11.970;2023-02-27T08:17:13;4.95;;;4.25;;
65206;SDS011;58477;48.072;11.970;2023-02-27T08:19:38;6.00;;;3.28;;
65206;SDS011;58477;48.072;11.970;2023-02-27T08:22:05;7.70;;;4.63;;
65206;SDS011;58477;48.072;11.970;2023-02-27T08:24:31;4.78;;;3.13;;
65206;SDS011;58477;48.072;11.970;2023-02-27T08:26:56;7.88;;;4.32;;
65206;SDS011;58477;48.072;11.970;2023-02-27T08:29:22;4.72;;;3.45;;
65206;SDS011;58477;48.072;11.970;2023-02-27T08:31:47;4.70;;;3.55;;
65206;SDS011;58477;48.072;11.970;2023-02-27T08:34:13;8.00;;;3.83;;
65206;SDS011;58477;48.072;11.970;2023-02-27T08:36:39;3.85;;;2.83;;
65206;SDS011;58477;48.072;11.970;2023-02-27T08:39:05;2.58;;;2.38;;
65206;SDS011;58477;48.072;11.970;2023-02-27T08:41:31;6.20;;;3.70;;
65206;SDS011;58477;48.072;11.970;2023-02-27T08:43:57;3.00;;;2.70;;
65206;SDS011;58477;48.072;11.970;2023-02-27T08:46:23;6.30;;;3.55;;
65206;SDS011;58477;48.072;11.970;2023-02-27T08:48:48;5.53;;;2.70;;
65206;SDS011;58477;48.072;11.970;2023-02-27T08:51:13;6.80;;;4.68;;
65206;SDS011;58477;48.072;11.970;2023-02-27T08:53:39;6.40;;;4.35;;
65206;SDS011;58477;48.072;11.970;2023-02-27T08:56:05;7.22;;;3.55;;
65206;SDS011;58477;48.072;11.970;2023-02-27T08:58:30;15.38;;;4.20;;
65206;SDS011;58477;48.072;11.970;2023-02-27T09:00:56;8.02;;;3.78;;
65206;SDS011;58477;48.072;11.970;2023-02-27T09:03:21;8.18;;;3.92;;
65206;SDS011;58477;48.072;11.970;2023-02-27T09:05:50;8.00;;;4.20;;
65206;SDS011;58477;48.072;11.970;2023-02-27T09:08:16;4.30;;;3.50;;
65206;SDS011;58477;48.072;11.970;2023-02-27T09:10:41;7.15;;;3.65;;
65206;SDS011;58477;48.072;11.970;2023-02-27T09:13:07;3.38;;;2.60;;
65206;SDS011;58477;48.072;11.970;2023-02-27T09:15:32;6.50;;;4.10;;
65206;SDS011;58477;48.072;11.970;2023-02-27T09:18:02;6.35;;;2.90;;
65206;SDS011;58477;48.072;11.970;2023-02-27T09:20:30;5.05;;;2.95;;
65206;SDS011;58477;48.072;11.970;2023-02-27T09:22:56;3.63;;;2.95;;
65206;SDS011;58477;48.072;11.970;2023-02-27T09:25:23;6.00;;;2.63;;
65206;SDS011;58477;48.072;11.970;2023-02-27T09:27:48;4.07;;;2.28;;
65206;SDS011;58477;48.072;11.970;2023-02-27T09:30:14;4.82;;;3.25;;
65206;SDS011;58477;48.072;11.970;2023-02-27T09:32:39;3.60;;;2.67;;
65206;SDS011;58477;48.072;11.970;2023-02-27T09:35:05;2.80;;;2.50;;
65206;SDS011;58477;48.072;11.970;2023-02-27T09:37:31;5.50;;;2.53;;
65206;SDS011;58477;48.072;11.970;2023-02-27T09:39:56;4.72;;;3.15;;
65206;SDS011;58477;48.072;11.970;2023-02-27T09:42:25;5.95;;;2.75;;
65206;SDS011;58477;48.072;11.970;2023-02-27T09:44:59;5.03;;;2.97;;
65206;SDS011;58477;48.072;11.970;2023-02-27T09:47:29;3.35;;;2.58;;
65206;SDS011;58477;48.072;11.970;2023-02-27T09:52:34;4.38;;;1.95;;
65206;SDS011;58477;48.072;11.970;2023-02-27T09:55:03;5.47;;;2.60;;
65206;SDS011;58477;48.072;11.970;2023-02-27T09:57:36;2.20;;;1.98;;
65206;SDS011;58477;48.072;11.970;2023-02-27T10:02:50;2.42;;;2.13;;
65206;SDS011;58477;48.072;11.970;2023-02-27T10:08:25;5.45;;;2.55;;
65206;SDS011;58477;48.072;11.970;2023-02-27T10:11:01;6.47;;;2.80;;
65206;SDS011;58477;48.072;11.970;2023-02-27T10:16:05;2.45;;;2.22;;
65206;SDS011;58477;48.072;11.970;2023-02-27T10:21:21;1.90;;;1.80;;
65206;SDS011;58477;48.072;11.970;2023-02-27T10:27:11;3.03;;;2.20;;
65206;SDS011;58477;48.072;11.970;2023-02-27T10:29:41;2.05;;;1.77;;
65206;SDS011;58477;48.072;11.970;2023-02-27T10:34:49;3.50;;;1.75;;
65206;SDS011;58477;48.072;11.970;2023-02-27T10:37:21;3.00;;;2.25;;
65206;SDS011;58477;48.072;11.970;2023-02-27T10:39:56;3.00;;;1.75;;
65206;SDS011;58477;48.072;11.970;2023-02-27T10:42:24;3.83;;;1.63;;
65206;SDS011;58477;48.072;11.970;2023-02-27T10:44:53;2.85;;;2.05;;
65206;SDS011;58477;48.072;11.970;2023-02-27T10:47:21;6.13;;;2.10;;
65206;SDS011;58477;48.072;11.970;2023-02-27T10:49:48;2.72;;;1.88;;
65206;SDS011;58477;48.072;11.970;2023-02-27T10:52:14;3.17;;;1.77;;
65206;SDS011;58477;48.072;11.970;2023-02-27T10:54:41;3.72;;;2.35;;
65206;SDS011;58477;48.072;11.970;2023-02-27T10:57:18;4.68;;;2.47;;
65206;SDS011;58477;48.072;11.970;2023-02-27T11:02:24;3.00;;;1.80;;
65206;SDS011;58477;48.072;11.970;2023-02-27T11:04:54;4.15;;;2.30;;
65206;SDS011;58477;48.072;11.970;2023-02-27T11:07:37;4.65;;;1.90;;
65206;SDS011;58477;48.072;11.970;2023-02-27T11:12:37;4.47;;;2.50;;
65206;SDS011;58477;48.072;11.970;2023-02-27T11:17:41;8.73;;;2.30;;
65206;SDS011;58477;48.072;11.970;2023-02-27T11:23:05;3.65;;;2.28;;
65206;SDS011;58477;48.072;11.970;2023-02-27T11:25:37;5.13;;;2.30;;
65206;SDS011;58477;48.072;11.970;2023-02-27T11:28:21;2.92;;;2.63;;
65206;SDS011;58477;48.072;11.970;2023-02-27T11:30:56;3.55;;;2.00;;
65206;SDS011;58477;48.072;11.970;2023-02-27T11:33:27;3.10;;;2.58;;
65206;SDS011;58477;48.072;11.970;2023-02-27T11:35:55;7.38;;;2.55;;
65206;SDS011;58477;48.072;11.970;2023-02-27T11:38:23;3.40;;;2.20;;
65206;SDS011;58477;48.072;11.970;2023-02-27T11:40:59;3.30;;;1.85;;
65206;SDS011;58477;48.072;11.970;2023-02-27T11:43:28;4.88;;;2.38;;
65206;SDS011;58477;48.072;11.970;2023-02-27T11:46:05;2.13;;;1.92;;
65206;SDS011;58477;48.072;11.970;2023-02-27T11:48:34;2.60;;;2.25;;
65206;SDS011;58477;48.072;11.970;2023-02-27T11:53:42;2.40;;;1.38;;
65206;SDS011;58477;48.072;11.970;2023-02-27T11:56:33;3.28;;;1.90;;
65206;SDS011;58477;48.072;11.970;2023-02-27T11:59:04;2.72;;;1.75;;
65206;SDS011;58477;48.072;11.970;2023-02-27T12:04:16;2.00;;;1.58;;
65206;SDS011;58477;48.072;11.970;2023-02-27T12:07:11;2.33;;;1.70;;
65206;SDS011;58477;48.072;11.970;2023-02-27T12:12:01;3.28;;;2.13;;
65206;SDS011;58477;48.072;11.970;2023-02-27T12:14:43;2.60;;;1.90;;
65206;SDS011;58477;48.072;11.970;2023-02-27T12:17:20;2.17;;;1.80;;
65206;SDS011;58477;48.072;11.970;2023-02-27T12:22:28;4.32;;;2.08;;
65206;SDS011;58477;48.072;11.970;2023-02-27T12:24:59;13.63;;;2.70;;
65206;SDS011;58477;48.072;11.970;2023-02-27T12:27:53;4.00;;;1.90;;
65206;SDS011;58477;48.072;11.970;2023-02-27T12:30:21;3.65;;;2.47;;
65206;SDS011;58477;48.072;11.970;2023-02-27T12:32:53;3.38;;;2.13;;
65206;SDS011;58477;48.072;11.970;2023-02-27T12:35:41;4.57;;;2.10;;
65206;SDS011;58477;48.072;11.970;2023-02-27T12:38:12;1.80;;;1.60;;
65206;SDS011;58477;48.072;11.970;2023-02-27T12:41:05;2.17;;;1.80;;
65206;SDS011;58477;48.072;11.970;2023-02-27T12:57:29;3.45;;;2.20;;
65206;SDS011;58477;48.072;11.970;2023-02-27T13:05:28;6.30;;;2.67;;
65206;SDS011;58477;48.072;11.970;2023-02-27T13:08:12;6.50;;;2.53;;
65206;SDS011;58477;48.072;11.970;2023-02-27T13:10:43;4.38;;;2.45;;
65206;SDS011;58477;48.072;11.970;2023-02-27T13:16:11;5.88;;;3.05;;
65206;SDS011;58477;48.072;11.970;2023-02-27T13:18:42;3.90;;;2.42;;
65206;SDS011;58477;48.072;11.970;2023-02-27T13:26:25;3.50;;;2.78;;
65206;SDS011;58477;48.072;11.970;2023-02-27T13:28:54;4.90;;;1.95;;
65206;SDS011;58477;48.072;11.970;2023-02-27T13:34:30;5.82;;;2.05;;
65206;SDS011;58477;48.072;11.970;2023-02-27T13:36:58;3.25;;;2.05;;
65206;SDS011;58477;48.072;11.970;2023-02-27T13:39:37;4.78;;;3.08;;
65206;SDS011;58477;48.072;11.970;2023-02-27T13:44:55;2.33;;;2.13;;
65206;SDS011;58477;48.072;11.970;2023-02-27T13:49:57;6.85;;;3.75;;
65206;SDS011;58477;48.072;11.970;2023-02-27T13:52:27;4.88;;;2.30;;
65206;SDS011;58477;48.072;11.970;2023-02-27T13:54:53;4.00;;;3.60;;
65206;SDS011;58477;48.072;11.970;2023-02-27T13:57:20;7.85;;;2.80;;
65206;SDS011;58477;48.072;11.970;2023-02-27T13:59:52;5.70;;;2.90;;
65206;SDS011;58477;48.072;11.970;2023-02-27T14:05:00;6.40;;;3.15;;
65206;SDS011;58477;48.072;11.970;2023-02-27T14:07:46;3.10;;;1.85;;
65206;SDS011;58477;48.072;11.970;2023-02-27T14:10:23;4.30;;;2.40;;
65206;SDS011;58477;48.072;11.970;2023-02-27T14:12:51;5.80;;;3.33;;
65206;SDS011;58477;48.072;11.970;2023-02-27T14:17:43;7.00;;;4.20;;
65206;SDS011;58477;48.072;11.970;2023-02-27T14:23:08;6.30;;;2.97;;
65206;SDS011;58477;48.072;11.970;2023-02-27T14:28:22;6.15;;;3.03;;
65206;SDS011;58477;48.072;11.970;2023-02-27T14:31:04;6.65;;;2.60;;
65206;SDS011;58477;48.072;11.970;2023-02-27T14:33:47;3.33;;;2.00;;
65206;SDS011;58477;48.072;11.970;2023-02-27T14:36:24;5.05;;;3.05;;
65206;SDS011;58477;48.072;11.970;2023-02-27T14:38:58;8.10;;;3.20;;
65206;SDS011;58477;48.072;11.970;2023-02-27T14:43:51;5.10;;;2.38;;
65206;SDS011;58477;48.072;11.970;2023-02-27T14:49:01;3.83;;;2.40;;
65206;SDS011;58477;48.072;11.970;2023-02-27T14:51:30;4.72;;;2.95;;
65206;SDS011;58477;48.072;11.970;2023-02-27T14:56:40;3.90;;;2.10;;
65206;SDS011;58477;48.072;11.970;2023-02-27T14:59:25;4.15;;;2.40;;
65206;SDS011;58477;48.072;11.970;2023-02-27T15:02:01;10.07;;;2.78;;
65206;SDS011;58477;48.072;11.970;2023-02-27T15:04:29;4.82;;;2.60;;
65206;SDS011;58477;48.072;11.970;2023-02-27T15:06:55;3.83;;;2.38;;
65206;SDS011;58477;48.072;11.970;2023-02-27T15:09:23;2.25;;;2.05;;
65206;SDS011;58477;48.072;11.970;2023-02-27T15:12:02;3.40;;;2.53;;
65206;SDS011;58477;48.072;11.970;2023-02-27T15:14:38;2.67;;;2.20;;
65206;SDS011;58477;48.072;11.970;2023-02-27T15:17:14;4.40;;;2.55;;
65206;SDS011;58477;48.072;11.970;2023-02-27T15:19:45;5.32;;;2.78;;
65206;SDS011;58477;48.072;11.970;2023-02-27T15:22:18;3.55;;;3.00;;
65206;SDS011;58477;48.072;11.970;2023-02-27T15:24:47;3.65;;;2.65;;
65206;SDS011;58477;48.072;11.970;2023-02-27T15:27:17;3.80;;;2.90;;
65206;SDS011;58477;48.072;11.970;2023-02-27T15:32:34;4.88;;;2.28;;
65206;SDS011;58477;48.072;11.970;2023-02-27T15:35:03;5.40;;;2.70;;
65206;SDS011;58477;48.072;11.970;2023-02-27T15:37:36;3.90;;;2.00;;
65206;SDS011;58477;48.072;11.970;2023-02-27T15:40:02;3.00;;;2.17;;
65206;SDS011;58477;48.072;11.970;2023-02-27T15:42:31;3.88;;;2.03;;
65206;SDS011;58477;48.072;11.970;2023-02-27T15:44:59;5.55;;;3.95;;
65206;SDS011;58477;48.072;11.970;2023-02-27T15:47:27;5.75;;;2.70;;
65206;SDS011;58477;48.072;11.970;2023-02-27T15:49:58;3.67;;;2.67;;
65206;SDS011;58477;48.072;11.970;2023-02-27T15:52:32;6.78;;;3.60;;
65206;SDS011;58477;48.072;11.970;2023-02-27T15:55:08;5.75;;;3.28;;
65206;SDS011;58477;48.072;11.970;2023-02-27T15:57:38;5.97;;;3.25;;
65206;SDS011;58477;48.072;11.970;2023-02-27T16:00:04;6.47;;;3.08;;
65206;SDS011;58477;48.072;11.970;2023-02-27T16:02:47;2.40;;;2.20;;
65206;SDS011;58477;48.072;11.970;2023-02-27T16:07:42;6.03;;;2.78;;
65206;SDS011;58477;48.072;11.970;2023-02-27T16:10:12;5.28;;;2.95;;
65206;SDS011;58477;48.072;11.970;2023-02-27T16:12:45;3.80;;;2.55;;
65206;SDS011;58477;48.072;11.970;2023-02-27T16:17:55;4.85;;;2.63;;
65206;SDS011;58477;48.072;11.970;2023-02-27T16:20:36;5.95;;;2.20;;
65206;SDS011;58477;48.072;11.970;2023-02-27T16:23:12;3.85;;;2.78;;
65206;SDS011;58477;48.072;11.970;2023-02-27T16:25:42;3.42;;;2.60;;
65206;SDS011;58477;48.072;11.970;2023-02-27T16:28:50;4.53;;;2.78;;
65206;SDS011;58477;48.072;11.970;2023-02-27T16:31:24;7.40;;;3.13;;
65206;SDS011;58477;48.072;11.970;2023-02-27T16:33:50;3.28;;;2.97;;
65206;SDS011;58477;48.072;11.970;2023-02-27T16:36:21;4.80;;;3.30;;
65206;SDS011;58477;48.072;11.970;2023-02-27T16:38:51;4.97;;;3.00;;
65206;SDS011;58477;48.072;11.970;2023-02-27T16:41:17;6.97;;;3.65;;
65206;SDS011;58477;48.072;11.970;2023-02-27T16:43:45;3.95;;;3.17;;
65206;SDS011;58477;48.072;11.970;2023-02-27T16:46:12;7.43;;;3.75;;
65206;SDS011;58477;48.072;11.970;2023-02-27T16:51:13;5.03;;;3.38;;
65206;SDS011;58477;48.072;11.970;2023-02-27T16:53:41;5.97;;;4.40;;
65206;SDS011;58477;48.072;11.970;2023-02-27T16:56:08;4.90;;;3.40;;
65206;SDS011;58477;48.072;11.970;2023-02-27T16:58:35;8.45;;;3.47;;
65206;SDS011;58477;48.072;11.970;2023-02-27T17:01:00;3.67;;;3.25;;
65206;SDS011;58477;48.072;11.970;2023-02-27T17:03:26;5.22;;;3.13;;
65206;SDS011;58477;48.072;11.970;2023-02-27T17:05:52;8.43;;;3.67;;
65206;SDS011;58477;48.072;11.970;2023-02-27T17:08:17;5.18;;;3.92;;
65206;SDS011;58477;48.072;11.970;2023-02-27T17:10:43;5.90;;;3.92;;
65206;SDS011;58477;48.072;11.970;2023-02-27T17:13:08;3.97;;;3.50;;
65206;SDS011;58477;48.072;11.970;2023-02-27T17:15:34;6.35;;;3.97;;
65206;SDS011;58477;48.072;11.970;2023-02-27T17:17:59;4.60;;;3.20;;
65206;SDS011;58477;48.072;11.970;2023-02-27T17:20:25;11.43;;;3.35;;
65206;SDS011;58477;48.072;11.970;2023-02-27T17:22:54;6.47;;;4.72;;
65206;SDS011;58477;48.072;11.970;2023-02-27T17:25:19;8.40;;;4.72;;
65206;SDS011;58477;48.072;11.970;2023-02-27T17:27:45;7.78;;;4.22;;
65206;SDS011;58477;48.072;11.970;2023-02-27T17:30:11;8.88;;;4.45;;
65206;SDS011;58477;48.072;11.970;2023-02-27T17:32:38;7.05;;;4.65;;
65206;SDS011;58477;48.072;11.970;2023-02-27T17:35:03;7.32;;;5.20;;
65206;SDS011;58477;48.072;11.970;2023-02-27T17:37:29;7.00;;;4.15;;
65206;SDS011;58477;48.072;11.970;2023-02-27T17:39:55;8.40;;;5.28;;
65206;SDS011;58477;48.072;11.970;2023-02-27T17:42:20;13.18;;;5.85;;
65206;SDS011;58477;48.072;11.970;2023-02-27T17:44:49;10.90;;;3.92;;
65206;SDS011;58477;48.072;11.970;2023-02-27T17:47:15;5.03;;;4.05;;
65206;SDS011;58477;48.072;11.970;2023-02-27T17:49:41;8.63;;;5.30;;
65206;SDS011;58477;48.072;11.970;2023-02-27T17:52:07;7.80;;;5.25;;
65206;SDS011;58477;48.072;11.970;2023-02-27T17:54:33;7.75;;;5.70;;
65206;SDS011;58477;48.072;11.970;2023-02-27T17:56:59;11.73;;;5.97;;
65206;SDS011;58477;48.072;11.970;2023-02-27T17:59:25;7.85;;;4.20;;
65206;SDS011;58477;48.072;11.970;2023-02-27T18:01:50;5.60;;;3.72;;